Time;durP1;ratioP1;P1;durP2;ratioP2;P2;SDS_P1;SDS_P2;PMS_P1;PMS_P2;Temp;Humidity;BMP_temperature;BMP_pressure;BME280_temperature;BME280_humidity;BME280_pressure;Samples;Min_cycle;Max_cycle;Signal;HPM_P1;HPM_P2
2023/12/03 00:01:33;;;;;;;15.10;12.40;;;;;;;27.00;23.44;99351.80;102895;1301;68515;-87
2023/12/03 00:03:59;;;;;;;16.50;12.40;;;;;;;27.01;23.47;99355.92;103182;1294;68469;-87
2023/12/03 00:06:25;;;;;;;14.80;12.50;;;;;;;27.00;23.47;99368.00;103200;1294;68403;-88
2023/12/03 00:08:50;;;;;;;17.10;13.20;;;;;;;26.99;23.44;99378.56;102651;1298;68955;-87
2023/12/03 00:11:16;;;;;;;14.80;13.00;;;;;;;27.00;23.40;99375.61;102878;1294;68407;-88
2023/12/03 00:13:41;;;;;;;15.20;12.50;;;;;;;27.00;23.22;99378.86;103143;1296;68411;-88
2023/12/03 00:16:07;;;;;;;16.30;12.70;;;;;;;26.99;23.40;99378.23;103037;1294;68474;-88
2023/12/03 00:18:33;;;;;;;15.90;13.20;;;;;;;26.99;23.40;99388.17;102929;1295;68453;-88
2023/12/03 00:23:41;;;;;;;15.90;13.30;;;;;;;26.99;23.22;99390.98;103242;1295;68328;-88
2023/12/03 00:26:07;;;;;;;16.30;13.50;;;;;;;26.99;23.33;99406.48;103353;1291;68464;-88
2023/12/03 00:28:33;;;;;;;18.00;13.00;;;;;;;26.99;23.37;99406.73;103359;1292;68747;-87
2023/12/03 00:30:59;;;;;;;15.70;12.90;;;;;;;26.99;23.30;99399.20;103167;1297;68466;-88
2023/12/03 00:33:24;;;;;;;17.50;13.20;;;;;;;26.99;23.24;99396.81;103183;1293;68403;-88
2023/12/03 00:35:50;;;;;;;16.90;13.00;;;;;;;26.99;23.27;99398.36;102887;1297;342853;-88
2023/12/03 00:38:16;;;;;;;14.70;12.50;;;;;;;26.99;23.20;99400.98;103322;1297;68463;-87
2023/12/03 00:40:41;;;;;;;16.50;12.70;;;;;;;26.99;23.26;99408.32;103262;1291;68904;-88
2023/12/03 00:43:07;;;;;;;17.50;12.80;;;;;;;26.99;23.16;99404.63;103399;1294;68511;-88
2023/12/03 00:45:32;;;;;;;14.30;12.20;;;;;;;26.99;23.21;99410.78;103471;1297;68387;-87
2023/12/03 00:48:07;;;;;;;18.60;12.80;;;;;;;26.99;23.12;99418.57;103316;1291;68462;-93
2023/12/03 00:50:32;;;;;;;17.60;13.10;;;;;;;27.00;23.04;99412.64;103099;1293;68338;-87
2023/12/03 00:52:58;;;;;;;18.10;12.70;;;;;;;26.99;23.33;99410.07;103233;1295;68539;-88
2023/12/03 00:55:24;;;;;;;16.00;12.40;;;;;;;26.99;23.14;99413.47;103225;1299;68840;-88
2023/12/03 00:57:49;;;;;;;15.10;12.80;;;;;;;27.00;23.17;99419.48;103457;1297;68427;-87
2023/12/03 01:00:15;;;;;;;17.70;12.50;;;;;;;27.00;23.13;99434.55;103379;1291;68457;-88
2023/12/03 01:02:41;;;;;;;15.00;12.50;;;;;;;27.00;23.04;99433.30;103176;1297;68334;-87
2023/12/03 01:05:07;;;;;;;16.20;12.70;;;;;;;27.01;22.88;99433.48;103490;1296;68466;-88
2023/12/03 01:07:32;;;;;;;16.00;12.20;;;;;;;27.01;23.02;99436.32;103361;1291;68482;-88
2023/12/03 01:09:58;;;;;;;17.90;12.10;;;;;;;27.01;23.03;99439.16;103229;1298;68417;-87
2023/12/03 01:12:23;;;;;;;16.60;12.10;;;;;;;27.01;23.00;99437.88;103166;1291;68486;-88
2023/12/03 01:17:25;;;;;;;17.00;12.00;;;;;;;27.01;22.99;99450.94;104092;1297;72675;-88
2023/12/03 01:19:51;;;;;;;16.60;11.80;;;;;;;27.02;23.01;99455.55;104002;1294;68430;-88
2023/12/03 01:22:17;;;;;;;14.30;11.30;;;;;;;27.02;22.93;99459.94;103924;1294;68388;-88
2023/12/03 01:24:42;;;;;;;15.50;10.90;;;;;;;27.04;22.92;99460.69;104167;1294;68789;-88
2023/12/03 01:27:08;;;;;;;16.00;11.00;;;;;;;27.04;22.91;99462.69;104211;1293;68879;-88
2023/12/03 01:29:33;;;;;;;16.10;10.60;;;;;;;27.06;22.79;99457.58;103931;1297;68447;-88
2023/12/03 01:31:59;;;;;;;14.40;10.40;;;;;;;27.06;23.03;99457.15;104118;1295;67061;-88
2023/12/03 01:34:24;;;;;;;14.40;10.30;;;;;;;27.07;22.86;99462.91;104054;1294;68445;-88
2023/12/03 01:36:50;;;;;;;14.20;10.50;;;;;;;27.08;22.76;99467.58;104115;1298;68472;-88
2023/12/03 01:39:15;;;;;;;15.00;10.20;;;;;;;27.09;22.92;99475.71;103816;1296;68454;-87
2023/12/03 01:44:22;;;;;;;13.40;9.80;;;;;;;27.10;22.75;99476.95;103049;1295;68388;-88
2023/12/03 01:46:48;;;;;;;13.30;9.70;;;;;;;27.10;22.65;99476.72;103070;1294;68473;-88
2023/12/03 01:49:14;;;;;;;12.70;9.50;;;;;;;27.11;22.71;99482.73;103176;1297;68467;-88
2023/12/03 01:51:39;;;;;;;14.40;9.90;;;;;;;27.10;22.63;99478.58;103069;1294;68499;-88
2023/12/03 01:54:05;;;;;;;12.60;8.80;;;;;;;27.11;22.67;99478.80;103131;1294;68452;-88
2023/12/03 01:56:30;;;;;;;12.20;9.30;;;;;;;27.11;22.49;99484.05;102786;1294;68555;-87
2023/12/03 01:58:56;;;;;;;11.30;8.90;;;;;;;27.12;22.59;99485.50;103146;1294;68452;-87
2023/12/03 02:01:22;;;;;;;12.40;9.10;;;;;;;27.11;22.67;99480.91;103161;1297;68413;-87
2023/12/03 02:03:47;;;;;;;13.70;9.00;;;;;;;27.12;22.55;99484.81;102979;1294;68453;-87
2023/12/03 02:06:13;;;;;;;12.00;8.80;;;;;;;27.11;22.58;99479.52;103091;1294;68422;-87
2023/12/03 02:08:47;;;;;;;11.20;7.80;;;;;;;27.12;22.60;99479.55;102868;1294;68322;-94
2023/12/03 02:11:13;;;;;;;11.50;8.10;;;;;;;27.12;22.75;99470.58;103006;1300;72488;-89
2023/12/03 02:13:38;;;;;;;12.30;8.50;;;;;;;27.12;22.64;99467.16;103770;1298;68522;-88
2023/12/03 02:16:05;;;;;;;11.20;7.70;;;;;;;27.13;22.63;99472.23;103254;1300;68855;-88
2023/12/03 02:18:32;;;;;;;13.00;7.60;;;;;;;27.13;22.70;99477.64;103014;1301;68562;-88
2023/12/03 02:20:57;;;;;;;11.00;7.90;;;;;;;27.13;22.66;99490.02;103068;1294;68423;-87
2023/12/03 02:23:27;;;;;;;9.90;7.80;;;;;;;27.13;22.66;99493.73;102765;1294;68513;-87
2023/12/03 02:25:53;;;;;;;10.70;7.70;;;;;;;27.14;22.60;99506.58;103064;1296;68474;-88
2023/12/03 02:28:18;;;;;;;9.80;7.30;;;;;;;27.14;22.65;99512.55;103170;1294;68411;-88
2023/12/03 02:30:44;;;;;;;10.60;7.50;;;;;;;27.15;22.67;99512.05;103177;1294;69020;-87
2023/12/03 02:33:09;;;;;;;11.70;7.10;;;;;;;27.15;22.73;99514.63;103269;1294;69003;-88
2023/12/03 02:35:42;;;;;;;9.80;7.10;;;;;;;27.16;22.70;99508.27;103372;1294;68385;-90
2023/12/03 02:38:08;;;;;;;10.80;7.10;;;;;;;27.16;22.74;99507.02;102997;1294;68382;-88
2023/12/03 02:40:36;;;;;;;12.40;7.30;;;;;;;27.17;22.72;99509.02;103107;1294;68525;-88
2023/12/03 02:43:02;;;;;;;13.40;6.90;;;;;;;27.17;22.79;99511.17;103248;1297;68293;-87
2023/12/03 02:45:27;;;;;;;12.50;7.30;;;;;;;27.18;22.82;99513.79;103220;1297;68386;-88
2023/12/03 02:47:53;;;;;;;10.30;6.40;;;;;;;27.18;22.76;99517.64;103195;1293;68517;-88
2023/12/03 02:50:18;;;;;;;11.10;6.60;;;;;;;27.18;22.68;99527.44;103035;1297;69074;-87
2023/12/03 02:52:44;;;;;;;9.40;6.30;;;;;;;27.18;22.86;99533.13;103343;1294;68376;-87
2023/12/03 02:55:09;;;;;;;11.20;7.20;;;;;;;27.19;22.82;99543.69;103282;1297;68483;-88
2023/12/03 02:57:35;;;;;;;9.60;5.80;;;;;;;27.19;22.83;99553.23;103250;1295;68456;-88
2023/12/03 03:00:07;;;;;;;9.50;6.00;;;;;;;27.19;22.89;99557.23;103230;1295;68533;-88
2023/12/03 03:02:36;;;;;;;8.70;5.80;;;;;;;27.19;22.98;99552.13;103247;1294;68338;-93
2023/12/03 03:05:03;;;;;;;13.30;6.20;;;;;;;27.20;22.88;99553.17;102951;1294;68423;-88
2023/12/03 03:07:29;;;;;;;12.30;6.00;;;;;;;27.20;22.97;99556.71;103326;1295;73674;-87
2023/12/03 03:09:54;;;;;;;10.10;5.10;;;;;;;27.20;22.91;99563.43;103184;1297;68467;-88
2023/12/03 03:12:20;;;;;;;8.40;5.50;;;;;;;27.20;22.95;99572.95;103257;1294;68471;-88
2023/12/03 03:14:45;;;;;;;9.70;5.70;;;;;;;27.20;23.00;99569.84;103122;1300;68416;-88
2023/12/03 03:17:11;;;;;;;9.60;5.70;;;;;;;27.21;22.98;99575.25;103048;1295;68463;-87
2023/12/03 03:19:36;;;;;;;9.10;5.20;;;;;;;27.21;23.14;99571.03;103242;1297;68242;-87
2023/12/03 03:22:02;;;;;;;8.40;5.30;;;;;;;27.22;23.12;99568.70;103203;1297;68474;-88
2023/12/03 03:24:27;;;;;;;9.50;5.00;;;;;;;27.22;23.09;99566.98;103202;1297;68568;-88
2023/12/03 03:26:53;;;;;;;11.90;5.00;;;;;;;27.23;23.15;99572.02;103201;1297;69365;-88
2023/12/03 03:29:35;;;;;;;11.20;5.60;;;;;;;27.23;23.07;99578.15;102966;1293;68400;-92
2023/12/03 03:32:01;;;;;;;9.30;5.00;;;;;;;27.23;23.07;99578.57;102863;1295;68506;-87
2023/12/03 03:34:26;;;;;;;8.40;5.00;;;;;;;27.24;23.16;99588.45;103191;1293;68414;-88
2023/12/03 03:36:52;;;;;;;9.30;4.90;;;;;;;27.24;23.26;99586.33;103179;1298;68469;-88
2023/12/03 03:39:17;;;;;;;7.30;4.70;;;;;;;27.24;23.18;99595.83;103260;1293;68915;-88
2023/12/03 03:41:43;;;;;;;10.10;5.00;;;;;;;27.24;23.24;99591.32;103268;1293;68460;-88
2023/12/03 03:44:08;;;;;;;9.80;4.90;;;;;;;27.24;23.29;99598.44;102971;1293;68427;-88
2023/12/03 03:46:34;;;;;;;9.10;4.60;;;;;;;27.25;23.22;99610.71;103190;1300;68455;-88
2023/12/03 03:49:00;;;;;;;10.50;4.90;;;;;;;27.25;23.30;99607.18;103213;1295;68458;-88
2023/12/03 03:51:26;;;;;;;9.00;4.40;;;;;;;27.25;23.35;99605.64;103153;1295;68464;-87
2023/12/03 03:53:52;;;;;;;9.40;4.40;;;;;;;27.26;23.38;99608.35;103093;1295;69078;-88
2023/12/03 03:56:25;;;;;;;11.10;4.60;;;;;;;27.26;23.46;99610.09;103064;1300;68402;-93
2023/12/03 03:58:51;;;;;;;9.20;4.60;;;;;;;27.27;23.49;99613.69;103051;1295;72846;-88
2023/12/03 04:01:16;;;;;;;9.50;4.70;;;;;;;27.27;23.44;99622.85;103187;1297;68559;-87
2023/12/03 04:03:42;;;;;;;10.60;4.70;;;;;;;27.27;23.55;99619.85;103204;1297;68387;-88
2023/12/03 04:06:08;;;;;;;8.20;4.20;;;;;;;27.27;23.49;99618.61;103174;1295;68561;-88
2023/12/03 04:08:34;;;;;;;5.70;3.90;;;;;;;27.27;23.50;99616.75;103158;1297;68561;-89
2023/12/03 04:11:04;;;;;;;6.70;3.90;;;;;;;27.28;23.51;99617.92;103190;1297;68465;-89
2023/12/03 04:13:29;;;;;;;8.30;4.20;;;;;;;27.28;23.53;99619.10;103185;1297;68385;-88
2023/12/03 04:15:56;;;;;;;7.00;4.00;;;;;;;27.28;23.48;99615.08;103186;1294;69462;-88
2023/12/03 04:18:23;;;;;;;8.40;4.30;;;;;;;27.27;23.63;99620.58;103244;1295;68947;-88
2023/12/03 04:20:49;;;;;;;11.20;4.20;;;;;;;27.28;23.68;99625.23;103176;1298;68338;-88
2023/12/03 04:23:19;;;;;;;8.50;4.40;;;;;;;27.28;23.62;99631.33;103210;1297;68339;-94
2023/12/03 04:25:44;;;;;;;7.50;3.90;;;;;;;27.29;23.68;99631.63;102961;1297;68456;-88
2023/12/03 04:28:10;;;;;;;8.90;4.10;;;;;;;27.29;23.74;99634.65;103283;1297;68408;-88
2023/12/03 04:30:35;;;;;;;10.30;4.10;;;;;;;27.29;23.71;99637.31;103181;1295;68538;-88
2023/12/03 04:33:01;;;;;;;6.90;4.20;;;;;;;27.29;23.69;99648.45;103365;1297;68464;-88
2023/12/03 04:35:27;;;;;;;8.30;4.20;;;;;;;27.29;23.72;99656.40;103111;1294;68591;-88
2023/12/03 04:37:52;;;;;;;7.70;3.70;;;;;;;27.29;23.66;99658.37;103015;1295;68347;-88
2023/12/03 04:40:18;;;;;;;8.20;4.60;;;;;;;27.29;23.88;99659.28;103203;1294;68581;-88
2023/12/03 04:42:43;;;;;;;10.20;3.70;;;;;;;27.30;23.80;99663.25;103201;1298;68504;-88
2023/12/03 04:45:09;;;;;;;7.60;4.00;;;;;;;27.29;23.81;99670.91;103213;1297;68474;-88
2023/12/03 04:47:34;;;;;;;9.10;4.00;;;;;;;27.30;23.76;99678.33;103315;1299;68483;-88
2023/12/03 04:52:40;;;;;;;7.40;4.00;;;;;;;27.30;23.88;99671.52;103255;1297;72650;-88
2023/12/03 04:55:05;;;;;;;7.70;3.80;;;;;;;27.30;23.81;99676.92;103120;1294;68478;-88
2023/12/03 04:57:31;;;;;;;7.60;3.80;;;;;;;27.30;23.78;99680.48;103237;1295;68878;-87
2023/12/03 04:59:56;;;;;;;6.60;3.80;;;;;;;27.30;23.86;99685.18;103351;1295;68453;-88
2023/12/03 05:02:22;;;;;;;7.20;3.60;;;;;;;27.30;23.88;99692.12;103230;1295;68433;-87
2023/12/03 05:04:48;;;;;;;9.70;3.90;;;;;;;27.30;23.89;99703.52;103152;1295;68448;-88
2023/12/03 05:07:13;;;;;;;5.20;3.50;;;;;;;27.29;23.91;99705.87;103131;1300;68443;-88
2023/12/03 05:09:39;;;;;;;10.60;4.10;;;;;;;27.30;23.91;99702.19;103156;1297;68428;-87
2023/12/03 05:12:05;;;;;;;8.80;3.80;;;;;;;27.30;23.88;99706.32;103070;1294;68419;-87
2023/12/03 05:14:32;;;;;;;7.00;3.70;;;;;;;27.31;23.89;99711.35;103297;1298;68449;-88
2023/12/03 05:17:08;;;;;;;7.10;3.90;;;;;;;27.31;23.87;99716.65;103237;1293;68499;-93
2023/12/03 05:19:33;;;;;;;9.20;3.90;;;;;;;27.31;23.81;99709.94;103555;1294;68780;-87
2023/12/03 05:21:59;;;;;;;7.50;4.00;;;;;;;27.31;23.87;99709.13;105310;1293;68383;-88
2023/12/03 05:24:24;;;;;;;9.20;4.10;;;;;;;27.32;23.80;99713.02;106149;1293;65938;-89
2023/12/03 05:26:50;;;;;;;6.90;4.20;;;;;;;27.33;24.00;99719.06;106311;1293;65964;-89
2023/12/03 05:29:16;;;;;;;7.00;4.30;;;;;;;27.35;23.86;99730.82;106170;1293;65990;-90
2023/12/03 05:31:45;;;;;;;5.80;4.10;;;;;;;27.35;23.83;99732.77;106361;1292;65758;-88
2023/12/03 05:34:10;;;;;;;10.00;4.50;;;;;;;27.37;23.83;99735.71;106324;1293;65850;-88
2023/12/03 05:36:36;;;;;;;10.80;5.20;;;;;;;27.38;23.76;99753.05;105932;1292;68485;-88
2023/12/03 05:39:01;;;;;;;8.20;4.50;;;;;;;27.39;23.80;99771.35;106305;1291;65969;-89
2023/12/03 05:41:26;;;;;;;10.00;4.40;;;;;;;27.41;23.72;99764.79;106229;1291;66136;-89
2023/12/03 05:43:52;;;;;;;10.20;5.10;;;;;;;27.42;23.77;99769.87;104560;1292;68353;-88
2023/12/03 05:46:17;;;;;;;7.90;4.80;;;;;;;27.43;23.76;99771.79;103493;1291;68515;-87
2023/12/03 05:48:43;;;;;;;8.50;5.00;;;;;;;27.43;23.74;99768.15;103202;1292;68896;-87
2023/12/03 05:51:10;;;;;;;14.30;5.60;;;;;;;27.43;23.69;99771.30;103184;1292;68953;-88
2023/12/03 05:53:35;;;;;;;8.60;5.20;;;;;;;27.43;23.65;99777.51;103944;1291;66466;-88
2023/12/03 05:56:01;;;;;;;6.80;4.80;;;;;;;27.43;23.57;99786.01;106346;1291;65885;-88
2023/12/03 05:58:26;;;;;;;9.10;5.40;;;;;;;27.43;23.65;99794.36;106239;1291;65960;-88
2023/12/03 06:00:52;;;;;;;9.00;5.20;;;;;;;27.42;23.57;99805.13;106352;1291;66122;-89
2023/12/03 06:03:17;;;;;;;8.60;5.30;;;;;;;27.43;23.65;99804.64;106332;1291;66072;-88
2023/12/03 06:05:43;;;;;;;10.60;6.00;;;;;;;27.44;23.55;99812.21;106286;1291;66172;-88
2023/12/03 06:08:08;;;;;;;11.30;5.60;;;;;;;27.44;23.71;99820.05;106142;1291;68482;-89
2023/12/03 06:10:34;;;;;;;9.30;5.30;;;;;;;27.45;23.62;99823.27;104907;1291;68462;-88
2023/12/03 06:12:59;;;;;;;8.80;5.80;;;;;;;27.44;23.62;99826.06;103420;1291;68446;-87
2023/12/03 06:15:25;;;;;;;9.00;5.70;;;;;;;27.45;23.62;99830.35;103622;1294;68273;-87
2023/12/03 06:17:51;;;;;;;9.40;5.50;;;;;;;27.45;23.67;99831.48;104205;1298;68373;-87
2023/12/03 06:20:17;;;;;;;10.60;5.90;;;;;;;27.44;23.70;99833.58;104782;1294;68353;-88
2023/12/03 06:22:51;;;;;;;11.50;6.40;;;;;;;27.44;23.64;99844.21;104697;1291;68268;-87
2023/12/03 06:25:19;;;;;;;10.20;6.40;;;;;;;27.43;23.61;99847.83;104185;1292;68418;-88
2023/12/03 06:27:45;;;;;;;8.80;6.10;;;;;;;27.44;23.57;99851.58;105908;1291;68544;-89
2023/12/03 06:30:11;;;;;;;11.40;6.70;;;;;;;27.44;23.61;99850.17;106190;1291;66467;-89
2023/12/03 06:32:37;;;;;;;12.30;6.40;;;;;;;27.43;23.60;99863.58;106172;1291;66113;-88
2023/12/03 06:35:04;;;;;;;11.40;6.50;;;;;;;27.43;23.69;99871.65;104893;1296;66239;-88
2023/12/03 06:37:30;;;;;;;8.00;6.60;;;;;;;27.43;23.57;99884.46;103247;1296;72727;-88
2023/12/03 06:39:55;;;;;;;10.40;6.60;;;;;;;27.42;23.66;99898.22;103203;1294;68490;-88
2023/12/03 06:42:21;;;;;;;9.10;7.10;;;;;;;27.42;23.68;99903.83;103429;1293;68785;-88
2023/12/03 06:44:46;;;;;;;10.40;7.70;;;;;;;27.40;23.69;99904.85;103377;1295;69620;-88
2023/12/03 06:47:12;;;;;;;11.40;7.20;;;;;;;27.40;23.68;99914.05;103531;1295;68462;-89
2023/12/03 06:49:47;;;;;;;10.00;7.40;;;;;;;27.40;23.63;99916.56;103312;1291;68469;-93
2023/12/03 06:52:13;;;;;;;10.70;7.20;;;;;;;27.38;23.68;99925.23;103118;1291;68469;-88
2023/12/03 06:54:38;;;;;;;10.60;7.30;;;;;;;27.38;23.60;99929.55;103355;1292;68380;-88
2023/12/03 06:57:04;;;;;;;9.50;6.80;;;;;;;27.37;23.66;99938.14;103461;1296;68588;-88
2023/12/03 06:59:29;;;;;;;11.00;7.70;;;;;;;27.36;23.65;99943.92;103192;1292;68478;-88
2023/12/03 07:01:55;;;;;;;10.90;7.30;;;;;;;27.35;23.77;99957.77;103438;1297;68473;-88
2023/12/03 07:04:20;;;;;;;10.10;7.60;;;;;;;27.34;23.75;99964.36;102978;1300;68498;-88
2023/12/03 07:06:46;;;;;;;10.90;7.50;;;;;;;27.34;23.74;99970.53;103376;1292;68490;-88
2023/12/03 07:09:11;;;;;;;10.70;7.80;;;;;;;27.33;23.79;99973.45;103275;1292;68451;-88
2023/12/03 07:11:37;;;;;;;10.70;8.00;;;;;;;27.32;23.72;99987.48;103363;1292;68389;-88
2023/12/03 07:14:03;;;;;;;10.70;7.40;;;;;;;27.31;23.87;99994.29;103366;1296;68479;-88
2023/12/03 07:19:12;;;;;;;11.10;8.30;;;;;;;27.30;23.81;100009.10;103113;1293;72791;-88
2023/12/03 07:21:38;;;;;;;10.50;7.90;;;;;;;27.29;23.75;100019.86;103240;1294;68479;-88
2023/12/03 07:24:03;;;;;;;12.30;8.20;;;;;;;27.29;23.69;100023.84;103185;1293;68447;-88
2023/12/03 07:26:29;;;;;;;12.60;8.80;;;;;;;27.29;23.77;100026.52;103286;1294;68386;-88
2023/12/03 07:28:56;;;;;;;12.60;8.70;;;;;;;27.29;23.75;100041.88;102914;1300;68389;-88
2023/12/03 07:31:22;;;;;;;15.50;8.70;;;;;;;27.29;23.81;100045.24;103006;1294;68490;-88
2023/12/03 07:33:47;;;;;;;12.00;8.90;;;;;;;27.28;23.79;100048.68;103015;1296;68522;-88
2023/12/03 07:36:13;;;;;;;10.30;8.60;;;;;;;27.27;23.81;100055.58;103190;1294;68446;-88
2023/12/03 07:38:38;;;;;;;10.90;8.90;;;;;;;27.27;23.88;100053.72;103183;1294;69541;-88
2023/12/03 07:41:09;;;;;;;9.80;8.50;;;;;;;27.26;23.94;100060.65;103187;1300;68475;-88
2023/12/03 07:43:35;;;;;;;12.20;9.80;;;;;;;27.26;23.98;100067.12;103251;1296;68351;-90
2023/12/03 07:46:00;;;;;;;10.60;8.90;;;;;;;27.25;24.07;100071.04;102937;1297;68507;-88
2023/12/03 07:48:26;;;;;;;13.40;10.30;;;;;;;27.25;24.13;100063.79;103134;1295;68557;-88
2023/12/03 07:50:52;;;;;;;12.40;9.60;;;;;;;27.25;23.97;100060.51;103080;1301;68484;-88
2023/12/03 07:53:17;;;;;;;11.90;9.70;;;;;;;27.24;24.01;100061.29;103233;1298;68462;-88
2023/12/03 07:55:43;;;;;;;12.90;10.00;;;;;;;27.24;24.06;100067.13;103222;1295;68458;-88
2023/12/03 07:58:09;;;;;;;16.30;10.70;;;;;;;27.24;24.11;100070.53;102866;1298;68452;-88
2023/12/03 08:00:36;;;;;;;11.50;9.40;;;;;;;27.24;24.07;100073.34;103168;1298;68402;-88
2023/12/03 08:03:02;;;;;;;13.80;10.30;;;;;;;27.23;24.24;100082.09;104050;1297;68395;-89
2023/12/03 08:05:28;;;;;;;14.70;10.50;;;;;;;27.23;24.30;100084.33;103279;1298;68417;-90
2023/12/03 08:07:53;;;;;;;13.30;10.10;;;;;;;27.23;24.23;100095.11;103268;1297;68568;-89
2023/12/03 08:12:59;;;;;;;13.30;10.20;;;;;;;27.23;24.24;100109.69;103364;1294;72888;-87
2023/12/03 08:15:24;;;;;;;12.70;10.20;;;;;;;27.23;24.37;100122.08;103181;1297;68483;-88
2023/12/03 08:17:50;;;;;;;13.90;10.20;;;;;;;27.22;24.25;100116.48;103508;1293;68477;-88
2023/12/03 08:20:15;;;;;;;12.40;9.70;;;;;;;27.23;24.28;100122.23;103315;1293;68432;-87
2023/12/03 08:22:41;;;;;;;12.20;9.60;;;;;;;27.23;24.43;100119.81;103336;1294;68521;-87
2023/12/03 08:25:07;;;;;;;14.20;10.80;;;;;;;27.23;24.32;100120.52;103096;1294;68406;-88
2023/12/03 08:27:33;;;;;;;14.00;10.70;;;;;;;27.23;24.39;100122.08;103249;1299;68441;-87
2023/12/03 08:29:58;;;;;;;14.90;10.50;;;;;;;27.23;24.28;100129.77;102989;1296;68464;-87
2023/12/03 08:32:24;;;;;;;13.30;10.30;;;;;;;27.23;24.40;100142.02;103148;1294;68818;-87
2023/12/03 08:34:50;;;;;;;13.80;9.80;;;;;;;27.22;24.40;100137.53;103375;1297;68349;-88
2023/12/03 08:37:24;;;;;;;11.30;9.90;;;;;;;27.23;24.35;100130.60;103108;1294;68547;-91
2023/12/03 08:39:50;;;;;;;15.50;10.30;;;;;;;27.22;24.50;100135.42;103205;1294;68470;-87
2023/12/03 08:42:17;;;;;;;13.10;9.80;;;;;;;27.22;24.52;100139.08;103283;1294;68489;-87
2023/12/03 08:44:42;;;;;;;12.50;9.80;;;;;;;27.22;24.63;100133.52;103407;1291;68367;-88
2023/12/03 08:47:08;;;;;;;12.70;9.70;;;;;;;27.22;24.42;100136.77;103338;1292;68454;-88
2023/12/03 08:49:34;;;;;;;12.70;9.50;;;;;;;27.22;24.55;100141.33;103432;1291;68486;-88
2023/12/03 08:52:00;;;;;;;12.10;9.90;;;;;;;27.22;24.46;100144.35;103222;1297;68452;-87
2023/12/03 08:54:25;;;;;;;11.90;9.70;;;;;;;27.23;24.66;100156.02;103444;1296;68498;-88
2023/12/03 08:56:51;;;;;;;13.60;9.60;;;;;;;27.22;24.64;100152.98;103298;1291;68990;-88
2023/12/03 08:59:17;;;;;;;12.30;10.00;;;;;;;27.22;24.65;100162.07;103452;1292;68454;-88
2023/12/03 09:01:42;;;;;;;15.50;9.60;;;;;;;27.22;24.71;100160.41;103397;1291;68396;-88
2023/12/03 09:04:23;;;;;;;14.80;10.20;;;;;;;27.22;24.74;100158.92;103023;1294;68379;-92
2023/12/03 09:06:49;;;;;;;14.10;9.10;;;;;;;27.21;24.79;100165.14;103114;1291;72682;-87
2023/12/03 09:09:15;;;;;;;12.10;9.70;;;;;;;27.22;24.76;100158.93;103573;1292;68437;-88
2023/12/03 09:11:42;;;;;;;10.70;9.30;;;;;;;27.22;24.77;100155.10;103411;1291;68461;-87
2023/12/03 09:14:08;;;;;;;13.50;10.30;;;;;;;27.21;24.85;100153.06;103326;1297;68556;-88
2023/12/03 09:16:33;;;;;;;11.90;9.40;;;;;;;27.22;24.81;100147.67;103423;1296;68348;-88
2023/12/03 09:18:59;;;;;;;11.40;9.20;;;;;;;27.22;24.90;100146.73;103172;1292;68484;-88
2023/12/03 09:21:24;;;;;;;14.20;9.40;;;;;;;27.22;24.67;100144.50;103227;1294;68515;-88
2023/12/03 09:23:50;;;;;;;9.90;8.40;;;;;;;27.22;24.94;100137.08;103237;1291;68394;-87
2023/12/03 09:26:16;;;;;;;12.00;9.00;;;;;;;27.22;24.97;100126.55;103254;1291;68423;-88
2023/12/03 09:28:41;;;;;;;11.20;8.80;;;;;;;27.22;24.97;100129.95;103290;1292;68524;-87
2023/12/03 09:31:11;;;;;;;12.00;8.80;;;;;;;27.22;25.05;100142.76;103391;1291;68586;-93
2023/12/03 09:33:37;;;;;;;11.40;9.10;;;;;;;27.22;24.99;100137.86;103203;1292;68383;-87
2023/12/03 09:36:02;;;;;;;11.50;8.80;;;;;;;27.21;25.00;100137.16;103173;1291;68473;-88
2023/12/03 09:38:28;;;;;;;12.30;8.10;;;;;;;27.22;24.97;100144.42;103179;1292;68547;-88
2023/12/03 09:40:55;;;;;;;13.00;8.60;;;;;;;27.22;25.17;100151.70;103102;1291;68390;-88
2023/12/03 09:43:21;;;;;;;10.20;8.50;;;;;;;27.22;25.16;100162.23;103288;1299;68352;-88
2023/12/03 09:45:47;;;;;;;12.60;8.10;;;;;;;27.23;25.06;100173.06;103060;1292;68540;-87
2023/12/03 09:48:13;;;;;;;12.90;8.70;;;;;;;27.23;25.18;100174.77;103351;1298;68569;-88
2023/12/03 09:50:42;;;;;;;11.10;8.10;;;;;;;27.22;25.19;100171.73;103284;1298;72688;-88
2023/12/03 09:53:10;;;;;;;9.40;8.00;;;;;;;27.22;25.16;100174.98;103351;1292;68424;-87
2023/12/03 09:55:35;;;;;;;9.80;8.00;;;;;;;27.21;25.16;100179.16;103272;1294;68467;-87
2023/12/03 09:58:06;;;;;;;14.80;7.70;;;;;;;27.21;25.23;100184.15;103628;1292;68480;-93
2023/12/03 10:00:32;;;;;;;11.10;8.20;;;;;;;27.21;25.16;100185.55;103605;1292;68348;-87
2023/12/03 10:02:58;;;;;;;11.80;8.00;;;;;;;27.21;25.27;100185.59;103299;1291;68556;-87
2023/12/03 10:05:23;;;;;;;8.00;7.10;;;;;;;27.22;25.30;100190.13;103119;1300;68791;-88
2023/12/03 10:07:49;;;;;;;9.30;7.20;;;;;;;27.22;25.29;100192.07;103451;1291;68427;-88
2023/12/03 10:10:20;;;;;;;9.70;7.40;;;;;;;27.23;25.32;100198.77;103358;1291;68467;-88
2023/12/03 10:12:47;;;;;;;8.90;6.80;;;;;;;27.22;25.35;100197.45;102974;1291;73709;-88
2023/12/03 10:15:13;;;;;;;9.50;6.90;;;;;;;27.23;25.21;100191.39;103003;1299;68357;-87
2023/12/03 10:17:40;;;;;;;10.00;7.10;;;;;;;27.23;25.39;100194.69;103015;1291;68410;-88
2023/12/03 10:20:21;;;;;;;8.70;6.90;;;;;;;27.22;25.40;100195.91;103584;1296;68562;-88
2023/12/03 10:22:47;;;;;;;7.40;6.50;;;;;;;27.22;25.35;100197.98;103438;1291;68417;-87
2023/12/03 10:25:30;;;;;;;7.70;6.20;;;;;;;27.22;25.34;100218.17;103084;1294;68344;-88
2023/12/03 10:27:56;;;;;;;10.00;6.60;;;;;;;27.22;25.46;100231.35;103130;1291;68329;-88
2023/12/03 10:30:22;;;;;;;12.10;6.70;;;;;;;27.22;25.36;100227.94;103055;1292;68440;-88
2023/12/03 10:32:47;;;;;;;9.60;6.30;;;;;;;27.22;25.33;100227.86;103099;1292;68526;-88
2023/12/03 10:35:13;;;;;;;8.90;6.20;;;;;;;27.22;25.46;100228.02;103300;1297;68436;-88
2023/12/03 10:37:38;;;;;;;6.70;5.60;;;;;;;27.23;25.38;100223.96;102948;1300;68480;-87
2023/12/03 10:40:04;;;;;;;8.10;6.10;;;;;;;27.23;25.39;100225.98;103367;1297;68463;-88
2023/12/03 10:42:36;;;;;;;12.50;6.00;;;;;;;27.23;25.51;100240.55;102994;1300;68547;-87
2023/12/03 10:45:07;;;;;;;6.80;5.60;;;;;;;27.23;25.30;100239.84;103153;1291;68316;-88
2023/12/03 10:47:33;;;;;;;7.70;5.70;;;;;;;27.24;25.36;100234.50;103385;1292;72793;-88
2023/12/03 10:50:00;;;;;;;8.00;5.80;;;;;;;27.23;25.32;100231.92;102999;1298;68490;-87
2023/12/03 10:52:26;;;;;;;7.80;5.50;;;;;;;27.24;25.40;100229.27;103108;1294;68427;-87
2023/12/03 10:54:51;;;;;;;6.50;5.60;;;;;;;27.23;25.52;100222.98;103201;1292;68572;-88
2023/12/03 10:57:17;;;;;;;6.90;5.10;;;;;;;27.24;25.45;100218.74;103100;1292;68499;-88
2023/12/03 10:59:42;;;;;;;7.50;4.90;;;;;;;27.23;25.30;100231.36;103391;1291;68463;-87
2023/12/03 11:02:11;;;;;;;7.20;5.00;;;;;;;27.23;25.39;100238.17;103025;1295;68431;-87
2023/12/03 11:04:43;;;;;;;8.10;5.00;;;;;;;27.23;25.41;100228.35;103319;1299;68473;-88
2023/12/03 11:07:08;;;;;;;6.20;4.60;;;;;;;27.23;25.45;100247.11;103324;1291;68271;-88
2023/12/03 11:09:35;;;;;;;7.00;4.70;;;;;;;27.24;25.42;100262.95;103415;1291;68472;-88
2023/12/03 11:12:19;;;;;;;5.30;4.30;;;;;;;27.24;25.36;100261.29;103268;1292;65760;-88
2023/12/03 11:14:44;;;;;;;6.80;4.50;;;;;;;27.25;25.35;100255.33;103458;1297;68501;-88
2023/12/03 11:17:19;;;;;;;6.80;4.50;;;;;;;27.25;25.43;100246.29;103286;1292;68460;-88
2023/12/03 11:19:47;;;;;;;6.10;4.60;;;;;;;27.25;25.41;100250.83;103801;1291;68495;-88
2023/12/03 11:22:35;;;;;;;5.20;4.20;;;;;;;27.25;25.31;100253.66;103485;1294;72752;-89
2023/12/03 11:25:19;;;;;;;5.70;4.20;;;;;;;27.25;25.34;100257.54;103431;1291;69118;-88
2023/12/03 11:27:46;;;;;;;5.80;3.90;;;;;;;27.25;25.27;100264.20;103440;1292;68317;-93
2023/12/03 11:30:12;;;;;;;6.60;4.30;;;;;;;27.25;25.26;100264.36;103267;1296;68412;-88